Time;durP1;ratioP1;P1;durP2;ratioP2;P2;SDS_P1;SDS_P2;PMS_P1;PMS_P2;Temp;Humidity;BMP_temperature;BMP_pressure;BME280_temperature;BME280_humidity;BME280_pressure;Samples;Min_cycle;Max_cycle;Signal;HPM_P1;HPM_P2
2023/08/03 00:01:07;;;;;;;2.50;1.55;;;24.90;58.60;;;;;;6119193;28;80551;-58
2023/08/03 00:04:07;;;;;;;1.50;1.40;;;24.90;58.40;;;;;;6125471;28;81360;-59
2023/08/03 00:07:08;;;;;;;3.13;1.63;;;24.90;58.40;;;;;;6119984;28;80043;-59
2023/08/03 00:10:08;;;;;;;2.75;1.52;;;24.90;58.50;;;;;;6111006;28;80432;-58
2023/08/03 00:13:09;;;;;;;1.67;1.40;;;24.90;58.60;;;;;;6101603;28;82531;-59
2023/08/03 00:16:09;;;;;;;1.98;1.38;;;24.90;58.80;;;;;;6112476;28;80509;-57
2023/08/03 00:19:10;;;;;;;4.18;1.83;;;24.90;58.70;;;;;;6112816;28;80451;-59
2023/08/03 00:22:10;;;;;;;3.83;1.83;;;24.90;58.70;;;;;;6110358;28;80786;-59
2023/08/03 00:25:11;;;;;;;1.80;1.35;;;24.80;58.70;;;;;;6112344;28;80434;-58
2023/08/03 00:28:11;;;;;;;2.00;1.70;;;24.90;58.80;;;;;;6109640;28;81775;-59
2023/08/03 00:31:12;;;;;;;1.92;1.42;;;24.80;58.80;;;;;;6124611;28;82384;-59
2023/08/03 00:34:12;;;;;;;1.75;1.30;;;24.80;58.80;;;;;;6100124;28;81696;-59
2023/08/03 00:37:13;;;;;;;2.05;1.40;;;24.80;59.00;;;;;;6132596;28;82118;-59
2023/08/03 00:40:13;;;;;;;1.63;1.52;;;24.90;59.20;;;;;;6115324;28;83227;-59
2023/08/03 00:43:15;;;;;;;1.42;1.30;;;24.80;59.20;;;;;;6108605;28;81983;-59
2023/08/03 00:46:16;;;;;;;2.75;1.48;;;24.80;59.40;;;;;;6121874;28;80514;-59
2023/08/03 00:49:17;;;;;;;2.05;1.58;;;24.80;59.20;;;;;;6128384;28;81591;-59
2023/08/03 00:52:17;;;;;;;2.63;1.70;;;24.80;59.50;;;;;;6126966;28;81966;-58
2023/08/03 00:55:18;;;;;;;2.30;1.40;;;24.80;59.60;;;;;;6115474;28;84850;-59
2023/08/03 00:58:18;;;;;;;2.05;1.42;;;24.90;59.60;;;;;;6107600;28;80548;-70
2023/08/03 01:01:20;;;;;;;2.78;1.63;;;24.90;59.60;;;;;;6112273;28;80824;-68
2023/08/03 01:04:21;;;;;;;1.67;1.40;;;24.90;59.90;;;;;;6115777;28;82283;-69
2023/08/03 01:07:21;;;;;;;2.72;1.70;;;24.80;59.90;;;;;;6119332;28;81827;-69
2023/08/03 01:10:22;;;;;;;1.55;1.35;;;24.80;59.60;;;;;;6130727;28;82473;-68
2023/08/03 01:13:23;;;;;;;2.30;1.50;;;24.90;59.70;;;;;;6132000;28;82331;-68
2023/08/03 01:16:24;;;;;;;1.90;1.75;;;24.80;59.60;;;;;;6114990;28;81043;-47
2023/08/03 01:19:25;;;;;;;2.95;1.20;;;24.80;59.70;;;;;;6104434;28;80581;-48
2023/08/03 01:22:25;;;;;;;2.88;1.40;;;24.80;59.60;;;;;;6117145;28;80384;-51
2023/08/03 01:25:26;;;;;;;2.60;1.60;;;24.80;59.60;;;;;;6115521;28;82729;-51
2023/08/03 01:28:26;;;;;;;2.58;1.70;;;24.80;59.60;;;;;;6131661;28;80512;-48
2023/08/03 01:31:27;;;;;;;2.85;2.05;;;24.80;59.80;;;;;;6118949;28;83791;-48
2023/08/03 01:34:27;;;;;;;2.38;1.70;;;24.80;59.70;;;;;;6122813;28;81557;-48
2023/08/03 01:37:28;;;;;;;3.90;1.67;;;24.80;59.60;;;;;;6136751;28;82978;-47
2023/08/03 01:40:28;;;;;;;3.03;1.45;;;24.80;59.70;;;;;;6129565;28;80772;-48
2023/08/03 01:43:29;;;;;;;7.70;1.92;;;24.80;59.80;;;;;;6117001;28;81206;-48
2023/08/03 01:46:30;;;;;;;8.35;1.98;;;24.80;59.70;;;;;;6098636;28;82852;-47
2023/08/03 01:49:31;;;;;;;1.80;1.50;;;24.80;59.80;;;;;;6109822;28;82046;-47
2023/08/03 01:52:31;;;;;;;3.45;1.63;;;24.80;59.80;;;;;;6106823;28;83461;-46
2023/08/03 01:55:32;;;;;;;3.95;1.55;;;24.80;59.90;;;;;;6114174;28;80598;-47
2023/08/03 01:58:33;;;;;;;3.30;1.60;;;24.80;59.90;;;;;;6117993;28;83883;-45
2023/08/03 02:01:33;;;;;;;2.03;1.45;;;24.80;59.80;;;;;;6164028;28;83179;-50
2023/08/03 02:04:34;;;;;;;1.83;1.50;;;24.80;59.90;;;;;;6134932;28;80972;-48
2023/08/03 02:07:34;;;;;;;2.00;1.58;;;24.80;60.00;;;;;;6120112;28;83178;-48
2023/08/03 02:10:35;;;;;;;2.10;1.70;;;24.80;60.00;;;;;;6150748;28;80315;-58
2023/08/03 02:13:36;;;;;;;1.40;1.30;;;24.80;59.90;;;;;;6125518;28;80426;-59
2023/08/03 02:16:36;;;;;;;3.38;1.90;;;24.80;60.00;;;;;;6122802;28;82144;-59
2023/08/03 02:19:37;;;;;;;1.90;1.52;;;24.80;60.10;;;;;;6123848;28;83956;-58
2023/08/03 02:22:37;;;;;;;2.35;1.52;;;24.70;60.00;;;;;;6130565;28;80360;-59
2023/08/03 02:25:38;;;;;;;2.30;1.60;;;24.70;60.10;;;;;;6130441;28;82225;-60
2023/08/03 02:28:38;;;;;;;1.95;1.75;;;24.70;60.10;;;;;;6120755;28;83089;-69
2023/08/03 02:31:39;;;;;;;2.22;1.55;;;24.80;60.30;;;;;;6129670;28;83156;-68
2023/08/03 02:34:39;;;;;;;2.88;1.73;;;24.80;60.40;;;;;;6135312;28;80627;-70
2023/08/03 02:37:40;;;;;;;1.65;1.48;;;24.80;60.40;;;;;;6143129;28;80593;-70
2023/08/03 02:40:48;;;;;;;1.60;1.35;;;24.80;60.50;;;;;;6126420;28;83427;-68
2023/08/03 02:43:48;;;;;;;1.70;1.60;;;24.80;60.30;;;;;;6136877;28;81465;-69
2023/08/03 02:46:53;;;;;;;4.15;1.48;;;24.80;60.40;;;;;;6145897;28;80509;-47
2023/08/03 02:49:54;;;;;;;2.03;1.38;;;24.80;60.30;;;;;;6125375;28;82231;-46
2023/08/03 02:52:54;;;;;;;1.70;1.50;;;24.80;60.40;;;;;;6129192;28;83429;-48
2023/08/03 02:55:55;;;;;;;1.77;1.52;;;24.80;60.60;;;;;;6113706;28;81936;-49
2023/08/03 02:58:56;;;;;;;2.25;1.60;;;24.80;61.20;;;;;;6121616;28;83306;-48
2023/08/03 03:02:07;;;;;;;1.60;1.40;;;24.80;60.60;;;;;;6134917;28;85956;-49
2023/08/03 03:05:11;;;;;;;4.60;2.22;;;24.80;60.40;;;;;;6125749;28;80652;-47
2023/08/03 03:08:17;;;;;;;1.60;1.40;;;24.80;60.60;;;;;;6112019;28;83390;-47
2023/08/03 03:11:19;;;;;;;2.95;1.50;;;24.80;60.60;;;;;;6115057;28;82978;-47
2023/08/03 03:14:20;;;;;;;1.80;1.40;;;24.80;60.70;;;;;;6120618;28;82078;-46
2023/08/03 03:17:20;;;;;;;2.30;1.73;;;24.80;60.70;;;;;;6108761;28;80911;-46
2023/08/03 03:20:23;;;;;;;2.53;1.67;;;24.80;60.80;;;;;;6106170;28;82228;-46
2023/08/03 03:23:24;;;;;;;3.65;1.63;;;24.80;60.90;;;;;;6095544;28;83330;-49
2023/08/03 03:26:24;;;;;;;3.60;1.67;;;24.80;60.90;;;;;;6105897;28;80889;-47
2023/08/03 03:29:25;;;;;;;2.70;1.85;;;24.80;61.00;;;;;;6096560;28;83520;-48
2023/08/03 03:32:26;;;;;;;2.17;1.88;;;24.80;61.00;;;;;;6117266;28;80755;-46
2023/08/03 03:35:26;;;;;;;2.13;1.67;;;24.80;61.00;;;;;;6103790;28;83645;-48
2023/08/03 03:38:27;;;;;;;1.98;1.50;;;24.80;61.10;;;;;;6100397;28;81109;-48
2023/08/03 03:41:28;;;;;;;1.90;1.70;;;24.80;61.20;;;;;;6106289;28;80384;-48
2023/08/03 03:44:28;;;;;;;1.48;1.38;;;24.80;61.40;;;;;;6102254;28;83043;-45
2023/08/03 03:47:29;;;;;;;3.25;1.90;;;24.80;61.50;;;;;;6127317;28;83695;-46
2023/08/03 03:50:32;;;;;;;1.73;1.60;;;24.80;61.50;;;;;;6117295;28;83485;-49
2023/08/03 03:53:32;;;;;;;2.20;1.90;;;24.80;61.50;;;;;;6120696;28;83311;-46
2023/08/03 03:56:39;;;;;;;2.92;1.77;;;24.80;61.80;;;;;;6104723;28;83834;-46
2023/08/03 03:59:40;;;;;;;2.22;1.67;;;24.80;62.00;;;;;;6100845;28;83253;-49
2023/08/03 04:02:41;;;;;;;2.30;2.00;;;24.80;62.00;;;;;;6115324;28;80954;-59
2023/08/03 04:05:46;;;;;;;2.03;1.80;;;24.80;62.10;;;;;;6118105;28;82098;-60
2023/08/03 04:08:47;;;;;;;2.10;1.90;;;24.80;62.30;;;;;;6130564;28;84359;-59
2023/08/03 04:11:48;;;;;;;3.05;1.80;;;24.80;62.30;;;;;;6112558;28;82065;-59
2023/08/03 04:14:49;;;;;;;3.67;1.90;;;24.80;62.60;;;;;;6109185;28;83970;-60
2023/08/03 04:17:50;;;;;;;2.30;1.60;;;24.80;62.60;;;;;;6126795;28;83592;-60
2023/08/03 04:20:54;;;;;;;3.45;1.75;;;24.80;62.70;;;;;;6120275;28;83300;-55
2023/08/03 04:23:55;;;;;;;3.05;1.90;;;24.80;62.90;;;;;;6127670;28;82633;-51
2023/08/03 04:26:56;;;;;;;3.50;2.20;;;24.80;62.80;;;;;;6106722;28;83156;-55
2023/08/03 04:29:58;;;;;;;3.13;2.35;;;24.80;63.60;;;;;;6103320;28;83030;-52
2023/08/03 04:32:59;;;;;;;3.78;2.28;;;24.90;63.00;;;;;;6107024;28;83197;-53
2023/08/03 04:36:02;;;;;;;2.63;1.80;;;24.80;63.10;;;;;;6104215;28;80742;-53
2023/08/03 04:39:08;;;;;;;4.75;2.30;;;24.80;63.30;;;;;;6115021;28;81484;-47
2023/08/03 04:42:08;;;;;;;3.72;1.90;;;24.80;63.20;;;;;;6110093;28;82644;-45
2023/08/03 04:45:11;;;;;;;4.22;2.72;;;24.80;63.40;;;;;;6104357;28;82236;-50
2023/08/03 04:48:16;;;;;;;2.67;1.80;;;24.80;63.30;;;;;;6120621;28;82660;-47
2023/08/03 04:51:16;;;;;;;2.22;1.77;;;24.80;63.50;;;;;;6112995;28;83748;-48
2023/08/03 04:54:17;;;;;;;2.45;2.00;;;24.90;63.50;;;;;;6102107;28;83021;-46
2023/08/03 04:57:18;;;;;;;3.78;2.28;;;24.90;63.30;;;;;;6105462;28;80745;-55
2023/08/03 05:00:18;;;;;;;2.33;2.08;;;24.80;63.50;;;;;;6101744;28;83076;-52
2023/08/03 05:03:19;;;;;;;6.07;2.58;;;24.80;63.60;;;;;;6113605;28;82691;-52
2023/08/03 05:06:19;;;;;;;4.78;2.00;;;24.80;63.60;;;;;;6139714;28;81252;-54
2023/08/03 05:09:20;;;;;;;2.67;1.85;;;24.80;63.70;;;;;;6121549;28;84133;-54
2023/08/03 05:12:21;;;;;;;5.72;2.72;;;24.80;64.00;;;;;;6146911;28;83664;-55
2023/08/03 05:15:22;;;;;;;3.20;2.13;;;24.80;64.10;;;;;;6116942;28;82210;-49
2023/08/03 05:18:22;;;;;;;4.00;2.17;;;24.80;64.00;;;;;;6119289;28;82381;-52
2023/08/03 05:21:23;;;;;;;3.53;2.20;;;24.80;64.10;;;;;;6106103;28;81322;-47
2023/08/03 05:24:23;;;;;;;4.55;2.83;;;24.80;64.40;;;;;;6101221;28;80872;-48
2023/08/03 05:27:24;;;;;;;3.17;2.30;;;24.80;64.00;;;;;;6104619;28;81741;-49
2023/08/03 05:30:25;;;;;;;4.82;2.47;;;24.80;64.20;;;;;;6094959;28;80685;-49
2023/08/03 05:33:25;;;;;;;5.03;2.30;;;24.80;64.30;;;;;;6116686;28;80428;-46
2023/08/03 05:36:26;;;;;;;3.25;2.35;;;24.80;64.30;;;;;;6102171;28;81164;-48
2023/08/03 05:39:27;;;;;;;3.47;2.55;;;24.80;64.30;;;;;;6106221;28;82660;-47
2023/08/03 05:42:27;;;;;;;3.60;2.00;;;24.70;64.40;;;;;;6109978;28;80804;-51
2023/08/03 05:45:28;;;;;;;2.88;2.25;;;24.80;64.50;;;;;;6104733;28;80542;-47
2023/08/03 05:48:28;;;;;;;4.43;2.30;;;24.80;64.70;;;;;;6133105;28;80916;-47
2023/08/03 05:51:29;;;;;;;2.92;2.00;;;24.80;64.70;;;;;;6122844;28;82020;-53
2023/08/03 05:54:29;;;;;;;2.95;2.30;;;24.80;65.00;;;;;;6126765;28;80796;-56
2023/08/03 05:57:30;;;;;;;2.75;2.15;;;24.80;65.10;;;;;;6117023;28;80680;-54
2023/08/03 06:00:30;;;;;;;3.65;2.30;;;24.80;65.30;;;;;;6126552;28;80775;-52
2023/08/03 06:03:31;;;;;;;4.40;2.40;;;24.80;65.40;;;;;;6114761;28;80605;-53
2023/08/03 06:06:31;;;;;;;3.47;2.38;;;24.80;65.60;;;;;;6105442;28;82658;-54
2023/08/03 06:09:32;;;;;;;3.60;2.40;;;24.80;65.50;;;;;;6134805;28;80144;-56
2023/08/03 06:12:32;;;;;;;3.15;2.47;;;24.90;66.00;;;;;;6122370;28;82929;-56
2023/08/03 06:15:33;;;;;;;3.53;2.17;;;24.90;66.10;;;;;;6119413;28;80589;-55
2023/08/03 06:18:33;;;;;;;3.55;1.90;;;24.90;66.30;;;;;;6111505;28;81856;-53
2023/08/03 06:21:34;;;;;;;4.97;2.40;;;24.90;66.60;;;;;;6129982;28;80907;-54
2023/08/03 06:24:34;;;;;;;4.15;2.38;;;24.90;66.60;;;;;;6125899;28;83033;-51
2023/08/03 06:27:35;;;;;;;3.05;2.20;;;24.90;66.80;;;;;;6112720;28;82699;-46
2023/08/03 06:30:35;;;;;;;4.45;2.53;;;24.90;66.80;;;;;;6110023;28;83280;-48
2023/08/03 06:33:36;;;;;;;2.67;2.15;;;24.90;67.10;;;;;;6145056;28;81640;-47
2023/08/03 06:36:37;;;;;;;3.65;2.40;;;24.90;67.10;;;;;;6129383;28;80584;-49
2023/08/03 06:39:37;;;;;;;4.93;2.58;;;24.90;67.60;;;;;;6119255;28;80675;-49
2023/08/03 06:42:38;;;;;;;4.40;2.58;;;24.60;71.00;;;;;;6129009;28;81235;-49
2023/08/03 06:45:38;;;;;;;10.75;2.42;;;24.30;73.60;;;;;;6118060;28;83707;-52
2023/08/03 06:48:39;;;;;;;8.18;2.40;;;24.10;75.00;;;;;;6118648;28;82728;-49
2023/08/03 06:51:39;;;;;;;6.53;2.33;;;24.00;75.20;;;;;;6129335;28;80945;-51
2023/08/03 06:54:40;;;;;;;2.83;2.20;;;24.20;74.20;;;;;;6126469;28;80366;-48
2023/08/03 06:57:40;;;;;;;13.43;3.15;;;24.40;73.70;;;;;;6120343;28;80695;-52
2023/08/03 07:00:41;;;;;;;5.38;2.95;;;24.40;73.90;;;;;;6106089;28;80156;-49
2023/08/03 07:03:42;;;;;;;4.40;2.55;;;24.40;73.90;;;;;;6107013;28;80719;-59
2023/08/03 07:06:42;;;;;;;5.65;2.88;;;24.50;74.00;;;;;;6118284;28;82362;-59
2023/08/03 07:09:48;;;;;;;12.40;2.60;;;24.50;73.50;;;;;;6123448;28;80206;-59
2023/08/03 07:12:48;;;;;;;6.68;2.90;;;24.60;73.60;;;;;;6130838;28;81929;-58
2023/08/03 07:15:49;;;;;;;8.52;2.63;;;24.60;73.60;;;;;;6116813;28;82887;-58
2023/08/03 07:18:49;;;;;;;4.57;2.85;;;24.70;72.90;;;;;;6128440;28;81705;-58
2023/08/03 07:21:50;;;;;;;6.97;3.05;;;24.70;73.00;;;;;;6112049;28;82914;-58
2023/08/03 07:24:50;;;;;;;8.23;3.10;;;24.70;73.00;;;;;;6115103;28;82231;-57
2023/08/03 07:27:51;;;;;;;8.70;2.90;;;24.70;72.70;;;;;;6120256;28;80533;-58
2023/08/03 07:30:52;;;;;;;5.53;2.92;;;24.80;73.10;;;;;;6119963;28;82715;-58
2023/08/03 07:33:52;;;;;;;4.68;2.58;;;24.80;73.10;;;;;;6130175;28;80528;-59
2023/08/03 07:36:53;;;;;;;4.05;2.70;;;24.80;73.10;;;;;;6121300;28;80986;-58
2023/08/03 07:39:54;;;;;;;6.32;2.92;;;24.90;73.30;;;;;;6128155;28;81496;-59
2023/08/03 07:42:54;;;;;;;8.80;3.10;;;24.90;73.30;;;;;;6125702;28;81985;-57
2023/08/03 07:45:55;;;;;;;6.18;3.08;;;24.90;73.30;;;;;;6107819;28;81310;-58
2023/08/03 07:48:55;;;;;;;6.20;3.03;;;24.90;73.40;;;;;;6119473;28;80563;-58
2023/08/03 07:51:56;;;;;;;6.78;3.00;;;24.90;73.50;;;;;;6106485;28;82618;-59
2023/08/03 07:54:56;;;;;;;8.38;3.30;;;24.90;74.10;;;;;;6110762;28;80586;-58
2023/08/03 07:57:57;;;;;;;5.57;3.28;;;24.90;74.50;;;;;;6095350;28;82117;-57
2023/08/03 08:00:58;;;;;;;4.90;3.20;;;24.90;74.90;;;;;;6125060;28;80683;-66
2023/08/03 08:03:59;;;;;;;7.25;2.90;;;24.90;74.80;;;;;;6127716;28;80908;-64
2023/08/03 08:06:59;;;;;;;6.22;3.08;;;24.90;75.50;;;;;;6123599;28;81937;-64
2023/08/03 08:10:00;;;;;;;8.00;3.30;;;24.90;76.30;;;;;;6129050;28;80712;-64
2023/08/03 08:13:00;;;;;;;6.10;3.33;;;24.90;76.10;;;;;;6115797;28;82920;-63
2023/08/03 08:16:01;;;;;;;7.15;3.50;;;24.90;76.30;;;;;;6132975;28;80540;-65
2023/08/03 08:19:01;;;;;;;10.68;3.60;;;24.90;76.10;;;;;;6111498;28;80856;-63
2023/08/03 08:22:02;;;;;;;6.32;3.85;;;24.90;76.40;;;;;;6119457;28;80373;-65
2023/08/03 08:25:02;;;;;;;5.07;3.00;;;24.90;76.10;;;;;;6102588;28;84795;-63
2023/08/03 08:28:03;;;;;;;4.90;3.03;;;24.90;76.30;;;;;;6125824;28;80554;-60
2023/08/03 08:31:04;;;;;;;5.50;3.35;;;24.90;76.20;;;;;;6143421;28;80627;-62
2023/08/03 08:34:04;;;;;;;6.25;3.25;;;24.80;76.00;;;;;;6134713;28;82316;-62
2023/08/03 08:37:05;;;;;;;5.20;3.13;;;24.80;75.70;;;;;;6129858;28;81968;-48
2023/08/03 08:40:06;;;;;;;5.70;3.40;;;24.90;75.70;;;;;;6117754;28;81903;-47
2023/08/03 08:43:07;;;;;;;13.60;3.95;;;24.90;75.90;;;;;;6115121;28;81424;-46
2023/08/03 08:46:07;;;;;;;6.90;3.47;;;24.80;75.50;;;;;;6106398;28;80863;-48
2023/08/03 08:49:08;;;;;;;9.35;3.30;;;24.70;76.50;;;;;;6130072;28;80622;-50
2023/08/03 08:52:08;;;;;;;5.75;2.80;;;24.40;76.70;;;;;;6115914;28;80725;-49
2023/08/03 08:55:09;;;;;;;9.43;3.67;;;24.40;76.50;;;;;;6104466;28;81249;-57
2023/08/03 08:58:09;;;;;;;5.35;2.97;;;24.50;75.90;;;;;;6150747;28;81460;-54
2023/08/03 09:01:10;;;;;;;5.72;3.15;;;24.40;75.40;;;;;;6126529;28;82554;-57
2023/08/03 09:04:11;;;;;;;9.15;3.47;;;24.40;75.10;;;;;;6128512;28;80709;-54
2023/08/03 09:07:11;;;;;;;4.28;2.95;;;24.30;75.50;;;;;;6129612;28;83700;-53
2023/08/03 09:10:12;;;;;;;9.98;3.53;;;24.30;75.50;;;;;;6143161;28;83074;-52
2023/08/03 09:13:13;;;;;;;5.63;2.90;;;24.40;75.60;;;;;;6136431;28;80456;-58
2023/08/03 09:16:13;;;;;;;8.35;2.72;;;24.30;75.20;;;;;;6115695;28;82153;-55
2023/08/03 09:19:14;;;;;;;4.18;2.90;;;24.30;75.10;;;;;;6128932;28;82947;-58
2023/08/03 09:22:14;;;;;;;5.53;2.45;;;24.30;74.60;;;;;;6115159;28;82351;-56
2023/08/03 09:25:15;;;;;;;8.07;2.30;;;24.30;74.30;;;;;;6108196;28;80924;-57
2023/08/03 09:28:15;;;;;;;2.72;2.10;;;24.00;74.20;;;;;;6110459;28;80895;-56
2023/08/03 09:31:16;;;;;;;6.10;2.53;;;24.00;74.70;;;;;;6122834;28;80475;-49
2023/08/03 09:34:16;;;;;;;6.45;2.63;;;23.90;75.00;;;;;;6118345;28;80985;-47
2023/08/03 09:37:17;;;;;;;4.65;1.77;;;23.50;75.60;;;;;;6103680;28;82692;-48
2023/08/03 09:40:19;;;;;;;4.00;2.17;;;23.50;76.00;;;;;;6122221;28;80338;-48
2023/08/03 09:43:20;;;;;;;4.97;2.20;;;23.50;75.90;;;;;;6113666;28;81683;-47
2023/08/03 09:46:20;;;;;;;4.28;2.20;;;23.60;75.50;;;;;;6106385;28;80580;-49
2023/08/03 09:49:21;;;;;;;3.03;1.80;;;23.60;75.70;;;;;;6101069;28;82045;-67
2023/08/03 09:52:21;;;;;;;3.42;2.22;;;23.60;76.00;;;;;;6111654;28;80601;-67
2023/08/03 09:55:22;;;;;;;5.00;3.22;;;23.70;75.80;;;;;;6126064;28;80762;-65
2023/08/03 09:58:22;;;;;;;5.38;2.17;;;23.40;76.60;;;;;;6110419;28;80590;-66
2023/08/03 10:01:23;;;;;;;5.22;2.28;;;23.10;78.30;;;;;;6117148;28;81171;-66
2023/08/03 10:04:24;;;;;;;5.05;2.28;;;23.40;77.90;;;;;;6105602;28;81928;-67
2023/08/03 10:07:24;;;;;;;3.90;2.35;;;23.60;77.10;;;;;;6116770;28;81372;-66
2023/08/03 10:10:25;;;;;;;3.63;2.60;;;23.80;76.20;;;;;;6117194;28;81634;-67
2023/08/03 10:13:25;;;;;;;3.00;1.90;;;23.90;75.40;;;;;;6113485;28;80562;-67
2023/08/03 10:16:26;;;;;;;3.38;2.17;;;24.00;74.70;;;;;;6123754;28;80005;-66
2023/08/03 10:19:26;;;;;;;3.80;2.20;;;24.10;74.50;;;;;;6100955;28;82132;-67
2023/08/03 10:22:27;;;;;;;4.68;2.25;;;24.10;74.00;;;;;;6128748;28;81704;-68
2023/08/03 10:25:27;;;;;;;3.05;2.00;;;24.20;73.70;;;;;;6108853;28;85079;-67
2023/08/03 10:28:28;;;;;;;3.55;2.08;;;24.20;73.40;;;;;;6110077;28;80840;-45
2023/08/03 10:31:28;;;;;;;6.75;1.95;;;24.20;73.00;;;;;;6101765;28;82833;-48
2023/08/03 10:34:29;;;;;;;4.53;2.10;;;24.30;72.80;;;;;;6111052;28;80995;-47
2023/08/03 10:37:29;;;;;;;3.13;2.10;;;24.30;72.70;;;;;;6111780;28;81950;-48
2023/08/03 10:40:30;;;;;;;3.83;1.77;;;24.40;72.60;;;;;;6113079;28;80583;-47
2023/08/03 10:43:30;;;;;;;2.63;2.13;;;24.40;72.10;;;;;;6118250;28;80743;-47
2023/08/03 10:46:31;;;;;;;3.28;1.75;;;24.40;72.20;;;;;;6113535;28;83070;-53
2023/08/03 10:49:33;;;;;;;3.30;1.95;;;24.40;72.00;;;;;;6113793;28;81730;-52
2023/08/03 10:52:33;;;;;;;2.58;1.50;;;24.40;71.30;;;;;;6106345;28;80378;-56
2023/08/03 10:55:34;;;;;;;3.70;1.85;;;24.50;71.40;;;;;;6128775;28;80162;-57
2023/08/03 10:58:35;;;;;;;4.65;2.45;;;24.50;71.00;;;;;;6116293;28;80564;-56
2023/08/03 11:01:35;;;;;;;4.30;2.13;;;24.50;70.90;;;;;;6108574;28;81366;-57
2023/08/03 11:04:36;;;;;;;3.35;1.80;;;24.60;71.10;;;;;;6113822;28;80468;-59
2023/08/03 11:07:37;;;;;;;3.22;1.65;;;24.60;71.20;;;;;;6110169;28;82697;-60
2023/08/03 11:10:37;;;;;;;2.92;1.90;;;24.60;71.10;;;;;;6134067;28;80608;-59
2023/08/03 11:13:38;;;;;;;2.22;1.70;;;24.60;70.70;;;;;;6109174;28;81418;-60
2023/08/03 11:16:38;;;;;;;4.78;2.00;;;24.60;70.50;;;;;;6125050;28;81426;-59
2023/08/03 11:19:39;;;;;;;8.05;2.67;;;24.60;70.30;;;;;;6117146;28;88040;-60
2023/08/03 11:22:39;;;;;;;2.80;1.52;;;24.60;70.80;;;;;;6129230;28;81609;-46
2023/08/03 11:25:40;;;;;;;2.25;1.85;;;24.60;70.60;;;;;;6126187;28;80712;-47
2023/08/03 11:28:40;;;;;;;3.60;2.00;;;24.70;70.30;;;;;;6113595;28;82771;-46
2023/08/03 11:31:41;;;;;;;2.85;1.67;;;24.70;70.20;;;;;;6130090;28;80441;-46
2023/08/03 11:34:42;;;;;;;2.25;1.70;;;24.60;70.20;;;;;;6112170;28;82683;-45
2023/08/03 11:37:42;;;;;;;5.32;1.75;;;24.60;70.20;;;;;;6124218;28;80252;-47
2023/08/03 11:40:43;;;;;;;5.18;2.15;;;24.70;70.30;;;;;;6135855;28;81354;-65
2023/08/03 11:43:43;;;;;;;6.75;2.00;;;24.70;70.40;;;;;;6109700;28;80152;-64
2023/08/03 11:46:44;;;;;;;3.03;2.50;;;24.70;70.20;;;;;;6108215;28;80897;-65
2023/08/03 11:49:44;;;;;;;2.65;1.92;;;24.70;70.20;;;;;;6118373;28;81811;-67
2023/08/03 11:52:45;;;;;;;3.97;2.42;;;24.70;70.30;;;;;;6126910;28;80392;-66
2023/08/03 11:55:45;;;;;;;5.43;2.42;;;24.60;70.40;;;;;;6117341;28;80327;-68
2023/08/03 11:58:46;;;;;;;4.35;2.33;;;24.70;70.30;;;;;;6114307;28;80702;-60
2023/08/03 12:01:47;;;;;;;2.80;1.95;;;24.70;70.40;;;;;;6123451;28;80506;-60
2023/08/03 12:04:47;;;;;;;5.38;2.28;;;24.70;70.50;;;;;;6111995;28;82132;-60
2023/08/03 12:07:47;;;;;;;3.80;1.90;;;24.70;70.60;;;;;;6115088;28;80460;-59
2023/08/03 12:10:48;;;;;;;3.75;2.05;;;24.70;70.80;;;;;;6119937;28;81008;-59
2023/08/03 12:13:49;;;;;;;4.50;2.08;;;24.70;70.70;;;;;;6122939;28;80586;-60
2023/08/03 12:16:49;;;;;;;3.20;2.03;;;24.70;71.00;;;;;;6107635;28;83807;-64
2023/08/03 12:19:50;;;;;;;2.70;1.73;;;24.70;70.90;;;;;;6113383;28;80297;-65
2023/08/03 12:22:50;;;;;;;3.28;2.25;;;24.60;70.90;;;;;;6113118;28;80778;-66
2023/08/03 12:25:52;;;;;;;4.65;1.80;;;24.70;70.80;;;;;;6118145;28;82313;-67
2023/08/03 12:28:52;;;;;;;4.57;2.15;;;24.70;70.80;;;;;;6126392;28;80206;-65
2023/08/03 12:31:53;;;;;;;3.75;1.90;;;24.70;70.60;;;;;;6109685;28;81191;-66
2023/08/03 12:34:53;;;;;;;2.72;1.77;;;24.70;70.50;;;;;;6125220;28;80387;-61
2023/08/03 12:37:54;;;;;;;2.22;1.95;;;24.70;70.70;;;;;;6110340;28;82612;-60
2023/08/03 12:40:55;;;;;;;2.63;1.88;;;24.70;70.60;;;;;;6132722;28;80709;-60
2023/08/03 12:43:55;;;;;;;3.95;2.05;;;24.70;70.70;;;;;;6111801;28;81353;-59
2023/08/03 12:46:56;;;;;;;3.15;1.98;;;24.70;70.60;;;;;;6116115;28;81730;-58
2023/08/03 12:49:58;;;;;;;5.70;1.83;;;24.70;70.50;;;;;;6131512;28;79997;-59
2023/08/03 12:52:59;;;;;;;4.90;2.03;;;24.70;70.50;;;;;;6118409;28;80359;-49
2023/08/03 12:55:59;;;;;;;2.45;1.80;;;24.70;70.00;;;;;;6107751;28;87744;-47
2023/08/03 12:59:00;;;;;;;3.42;1.80;;;24.70;70.50;;;;;;6104385;28;82467;-47
2023/08/03 13:02:00;;;;;;;3.50;1.90;;;24.70;70.50;;;;;;6108029;28;80313;-48
2023/08/03 13:05:01;;;;;;;3.72;1.83;;;24.70;71.50;;;;;;6112281;28;80910;-49
2023/08/03 13:08:01;;;;;;;3.42;1.80;;;24.70;70.80;;;;;;6099913;28;82366;-48
2023/08/03 13:11:02;;;;;;;6.18;1.90;;;24.70;70.50;;;;;;6119361;28;80611;-48
2023/08/03 13:14:02;;;;;;;3.13;1.85;;;24.70;70.40;;;;;;6115424;28;82303;-48
2023/08/03 13:17:03;;;;;;;13.40;3.25;;;24.70;70.40;;;;;;6128087;28;80336;-48
2023/08/03 13:20:04;;;;;;;10.35;2.38;;;24.70;70.30;;;;;;6120379;28;81847;-45
2023/08/03 13:23:04;;;;;;;6.57;2.70;;;24.70;70.40;;;;;;6154856;28;81633;-48
2023/08/03 13:26:05;;;;;;;6.18;2.22;;;24.70;70.30;;;;;;6153985;28;85002;-53
2023/08/03 13:29:05;;;;;;;4.78;2.53;;;24.70;70.50;;;;;;6116933;28;80487;-51
2023/08/03 13:32:06;;;;;;;6.60;2.17;;;24.70;70.40;;;;;;6130428;28;79889;-59
2023/08/03 13:35:06;;;;;;;3.80;1.80;;;24.80;70.60;;;;;;6134438;28;82498;-53
2023/08/03 13:38:07;;;;;;;6.30;2.25;;;24.70;70.60;;;;;;6128877;28;80855;-54
2023/08/03 13:41:07;;;;;;;3.67;2.08;;;24.80;70.70;;;;;;6119844;28;80089;-56
2023/08/03 13:44:08;;;;;;;5.20;2.33;;;24.70;70.70;;;;;;6115580;28;81688;-57
2023/08/03 13:47:08;;;;;;;6.30;2.67;;;24.80;70.90;;;;;;6128231;28;81229;-55
2023/08/03 13:50:09;;;;;;;3.20;2.17;;;24.70;70.90;;;;;;6120941;28;80962;-57
2023/08/03 13:53:09;;;;;;;4.45;2.20;;;24.70;70.40;;;;;;6127386;28;80375;-55
2023/08/03 13:56:10;;;;;;;4.50;2.42;;;24.70;70.30;;;;;;6103449;28;80781;-55
2023/08/03 13:59:11;;;;;;;3.53;2.10;;;24.70;70.30;;;;;;6103595;28;80535;-57
2023/08/03 14:02:12;;;;;;;7.50;2.53;;;24.70;69.90;;;;;;6109729;28;83937;-58
2023/08/03 14:05:15;;;;;;;4.88;2.55;;;24.70;69.80;;;;;;6120759;28;80701;-55
2023/08/03 14:08:15;;;;;;;10.50;2.95;;;24.70;69.60;;;;;;6137489;28;81197;-66
2023/08/03 14:11:16;;;;;;;6.05;2.47;;;24.70;69.40;;;;;;6121222;28;81763;-67
2023/08/03 14:14:16;;;;;;;5.93;2.03;;;24.70;69.20;;;;;;6140103;28;85967;-67
2023/08/03 14:17:17;;;;;;;6.50;2.33;;;24.70;69.00;;;;;;6122704;28;80263;-69
2023/08/03 14:20:18;;;;;;;4.93;2.30;;;24.70;68.60;;;;;;6128202;28;81694;-66
2023/08/03 14:23:19;;;;;;;3.58;2.35;;;24.70;68.90;;;;;;6128631;28;80794;-65
2023/08/03 14:26:20;;;;;;;3.13;2.17;;;24.70;68.40;;;;;;6135195;28;80879;-63
2023/08/03 14:29:20;;;;;;;2.28;1.90;;;24.70;68.40;;;;;;6127251;28;80624;-66
2023/08/03 14:32:21;;;;;;;3.63;1.95;;;24.70;68.90;;;;;;6130888;28;81363;-66
2023/08/03 14:35:21;;;;;;;3.53;2.10;;;24.70;68.50;;;;;;6135087;28;80489;-64
2023/08/03 14:38:22;;;;;;;4.22;2.83;;;24.70;68.80;;;;;;6113329;28;80606;-66
2023/08/03 14:41:25;;;;;;;5.90;2.80;;;24.70;68.80;;;;;;6126337;28;80467;-67
2023/08/03 14:44:25;;;;;;;5.18;2.53;;;24.40;69.10;;;;;;6110569;28;82701;-59
2023/08/03 14:47:26;;;;;;;5.50;2.20;;;23.70;71.80;;;;;;6123043;28;80406;-61
2023/08/03 14:50:26;;;;;;;3.75;1.92;;;23.40;73.40;;;;;;6144319;28;80612;-59
2023/08/03 14:53:27;;;;;;;3.78;2.47;;;23.20;74.70;;;;;;6146087;28;81582;-60
2023/08/03 14:56:27;;;;;;;3.95;2.50;;;23.20;74.40;;;;;;6125340;28;81009;-60
2023/08/03 14:59:28;;;;;;;4.60;2.60;;;23.10;73.60;;;;;;6119753;28;80971;-61
2023/08/03 15:02:30;;;;;;;4.30;2.28;;;23.10;74.10;;;;;;6129637;28;80633;-66
2023/08/03 15:05:30;;;;;;;2.08;1.55;;;23.10;73.50;;;;;;6121902;28;81273;-70
2023/08/03 15:08:31;;;;;;;3.92;1.92;;;23.10;73.30;;;;;;6127891;28;80311;-70
2023/08/03 15:11:33;;;;;;;2.70;1.70;;;23.10;72.60;;;;;;6138733;28;80655;-69
2023/08/03 15:14:35;;;;;;;7.45;2.20;;;23.20;71.90;;;;;;6119887;28;82306;-68
2023/08/03 15:17:35;;;;;;;4.38;2.58;;;23.20;70.80;;;;;;6119113;28;80343;-65
2023/08/03 15:20:36;;;;;;;3.15;1.98;;;23.30;70.80;;;;;;6100952;28;81254;-65
2023/08/03 15:23:36;;;;;;;4.85;1.88;;;23.30;70.70;;;;;;6109846;28;80379;-65
2023/08/03 15:26:37;;;;;;;7.00;2.40;;;23.20;70.40;;;;;;6097729;28;81933;-66
2023/08/03 15:29:37;;;;;;;3.85;2.08;;;23.10;70.00;;;;;;6110318;28;81353;-65
2023/08/03 15:32:38;;;;;;;3.92;1.95;;;23.00;69.80;;;;;;6125427;28;80614;-65
2023/08/03 15:35:40;;;;;;;3.42;1.85;;;23.00;69.90;;;;;;6112953;28;81533;-68
2023/08/03 15:38:40;;;;;;;5.93;2.35;;;23.00;70.20;;;;;;6111036;28;80060;-56